Canton, Illinois
Current Conditions -  °F | °C
As of 3:54 PM on Tuesday 25 Nov 2014 (Local Time) from KPIA Reporting Station
Few Clouds Few Clouds  
Wind Chill: 24°   Ceiling: Unl
Heat Index: 29°   Visibility: 10mi
Dew Point: 20°   Wind: 5mph
Humidity: 69%   Direction: 320°NW
Pressure: 30.15"   Gusts: NA
Location:  40.56°N, 90.03°W
Report Text: KPIA 252154Z 32004KT 10SM FEW019 M02/M07 A3015 RMK AO2 SLP219 T10171067
Loading
Personal Weather Stations






























Interactive Weather Map New forecast layout! Learn more

10-Day Weather Forecast

Advertisements
Track Severe Weather on mobile